createdAt,value
2018-12-14T00:00:47.995Z,30.43
2018-12-14T00:06:16.119Z,25.97
2018-12-14T00:11:45.631Z,26.00
2018-12-14T00:17:14.379Z,29.07
2018-12-14T00:22:42.568Z,27.37
2018-12-14T00:28:10.793Z,27.05
2018-12-14T00:33:39.107Z,24.40
2018-12-14T00:39:07.243Z,29.52
2018-12-14T00:44:35.337Z,32.45
2018-12-14T00:50:04.153Z,39.08
2018-12-14T00:55:32.466Z,33.25
2018-12-14T01:01:00.747Z,31.07
2018-12-14T01:06:28.986Z,32.05
2018-12-14T01:11:58.350Z,32.70
2018-12-14T01:17:26.695Z,31.05
2018-12-14T01:22:54.819Z,32.88
2018-12-14T01:28:22.934Z,32.70
2018-12-14T01:33:51.039Z,31.30
2018-12-14T01:39:19.137Z,28.65
2018-12-14T01:44:47.235Z,24.25
2018-12-14T01:50:15.359Z,31.02
2018-12-14T01:55:43.493Z,29.23
2018-12-14T02:01:11.621Z,25.20
2018-12-14T02:06:39.755Z,31.57
2018-12-14T02:12:11.317Z,32.50
2018-12-14T02:17:38.679Z,24.90
2018-12-14T02:23:06.986Z,25.80
2018-12-14T02:28:35.308Z,27.35
2018-12-14T02:34:03.445Z,25.40
2018-12-14T02:39:31.615Z,26.75
2018-12-14T02:44:59.812Z,24.00
2018-12-14T02:50:27.987Z,26.70
2018-12-14T02:55:56.090Z,27.40
2018-12-14T03:01:24.233Z,34.13
2018-12-14T03:06:52.346Z,30.45
2018-12-14T03:12:26.751Z,33.05
2018-12-14T03:17:50.616Z,30.02
2018-12-14T03:23:18.967Z,32.33
2018-12-14T03:28:47.180Z,33.08
2018-12-14T03:34:15.360Z,30.32
2018-12-14T03:39:43.505Z,27.70
2018-12-14T03:45:11.693Z,25.45
2018-12-14T03:50:39.826Z,24.87
2018-12-14T03:56:07.938Z,27.93
2018-12-14T04:01:36.180Z,22.67
2018-12-14T04:07:04.333Z,28.02
2018-12-14T04:12:32.590Z,28.02
2018-12-14T04:18:00.696Z,25.65
2018-12-14T04:23:28.832Z,29.65
2018-12-14T04:28:56.921Z,32.78
2018-12-14T04:34:25.091Z,25.10
2018-12-14T04:39:53.180Z,26.60
2018-12-14T04:45:21.425Z,25.52
2018-12-14T04:50:49.517Z,28.17
2018-12-14T04:56:17.607Z,26.93
2018-12-14T05:01:45.739Z,29.75
2018-12-14T05:07:13.936Z,26.87
2018-12-14T05:12:42.341Z,24.57
2018-12-14T05:18:10.514Z,25.80
2018-12-14T05:23:38.641Z,21.17
2018-12-14T05:29:06.731Z,22.55
2018-12-14T05:34:34.901Z,26.45
2018-12-14T05:40:03.073Z,24.00
2018-12-14T05:45:31.209Z,27.20
2018-12-14T05:50:59.602Z,28.30
2018-12-14T05:56:29.594Z,25.80
2018-12-14T06:01:57.755Z,26.07
2018-12-14T06:07:25.845Z,26.20
2018-12-14T06:12:53.947Z,26.25
2018-12-14T06:18:22.043Z,27.62
2018-12-14T06:23:50.364Z,25.85
2018-12-14T06:29:18.463Z,23.60
2018-12-14T06:34:46.649Z,27.40
2018-12-14T06:40:14.743Z,21.80
2018-12-14T06:45:43.380Z,23.75
2018-12-14T06:51:11.829Z,23.40
2018-12-14T06:56:39.980Z,24.80
2018-12-14T07:02:08.248Z,31.40
2018-12-14T07:07:36.473Z,28.20
2018-12-14T07:13:04.591Z,31.57
2018-12-14T07:18:32.678Z,22.00
2018-12-14T07:24:00.819Z,23.70
2018-12-14T07:29:28.984Z,22.55
2018-12-14T07:34:57.102Z,25.60
2018-12-14T07:40:25.188Z,29.57
2018-12-14T07:45:53.283Z,26.82
2018-12-14T07:51:21.482Z,27.98
2018-12-14T07:56:49.572Z,36.58
2018-12-14T08:02:17.774Z,28.80
2018-12-14T08:07:45.870Z,22.90
2018-12-14T08:13:13.970Z,26.10
2018-12-14T08:18:42.088Z,29.55
2018-12-14T08:24:10.252Z,23.50
2018-12-14T08:29:38.424Z,25.20
2018-12-14T08:35:07.898Z,26.00
2018-12-14T08:40:35.983Z,24.98
2018-12-14T08:46:04.092Z,28.65
2018-12-14T08:51:32.180Z,24.65
2018-12-14T08:57:00.319Z,27.45
2018-12-14T09:02:28.418Z,22.50
2018-12-14T09:07:56.521Z,23.40
2018-12-14T09:13:24.612Z,25.30
2018-12-14T09:18:52.705Z,23.98
2018-12-14T09:24:20.796Z,23.77
2018-12-14T09:29:48.889Z,26.90
2018-12-14T09:35:17.018Z,25.72
2018-12-14T09:40:45.099Z,24.02
2018-12-14T09:46:13.261Z,22.52
2018-12-14T09:51:41.365Z,23.90
2018-12-14T09:57:09.503Z,24.37
2018-12-14T10:02:37.654Z,26.82
2018-12-14T10:08:05.760Z,18.73
2018-12-14T10:13:33.919Z,24.02
2018-12-14T10:19:02.705Z,21.17
2018-12-14T10:24:30.815Z,24.77
2018-12-14T10:29:58.910Z,21.97
2018-12-14T10:35:27.086Z,20.17
2018-12-14T10:40:55.293Z,22.48
2018-12-14T10:46:23.454Z,21.15
2018-12-14T10:51:51.860Z,22.02
2018-12-14T10:57:19.997Z,20.95
2018-12-14T11:02:48.152Z,16.93
2018-12-14T11:08:16.284Z,23.85
2018-12-14T11:13:44.447Z,19.70
2018-12-14T11:19:12.670Z,23.90
2018-12-14T11:24:40.783Z,22.60
2018-12-14T11:30:09.728Z,20.17
2018-12-14T11:35:38.241Z,20.80
2018-12-14T11:41:06.340Z,22.02
2018-12-14T11:46:36.183Z,19.85
2018-12-14T11:52:04.395Z,20.20
2018-12-14T11:57:33.529Z,25.90
2018-12-14T12:03:01.636Z,22.77
2018-12-14T12:08:29.812Z,22.37
2018-12-14T12:13:58.090Z,18.62
2018-12-14T12:19:26.192Z,22.27
2018-12-14T12:24:54.313Z,19.62
2018-12-14T12:30:22.466Z,19.77
2018-12-14T12:35:50.796Z,19.20
2018-12-14T12:41:18.916Z,25.05
2018-12-14T12:46:48.141Z,19.20
2018-12-14T12:52:16.252Z,20.40
2018-12-14T12:57:44.380Z,18.80
2018-12-14T13:03:12.744Z,18.52
2018-12-14T13:08:40.912Z,21.62
2018-12-14T13:14:09.066Z,21.85
2018-12-14T13:19:37.202Z,30.72
2018-12-14T13:25:05.643Z,23.25
2018-12-14T13:30:33.906Z,19.95
2018-12-14T13:36:02.853Z,26.55
2018-12-14T13:41:31.081Z,21.40
2018-12-14T13:46:59.364Z,22.20
2018-12-14T13:52:27.546Z,19.12
2018-12-14T13:57:55.728Z,16.67
2018-12-14T14:09:30.594Z,18.80
2018-12-14T14:14:58.686Z,18.00
2018-12-14T14:20:26.820Z,16.55
2018-12-14T14:25:54.907Z,14.95
2018-12-14T14:31:22.988Z,15.70
2018-12-14T14:36:51.085Z,16.25
2018-12-14T14:42:19.163Z,18.67
2018-12-14T14:47:47.250Z,16.42
2018-12-14T14:53:16.238Z,15.83
2018-12-14T14:58:44.338Z,19.60
2018-12-14T15:04:12.442Z,19.82
2018-12-14T15:09:40.527Z,18.50
2018-12-14T15:15:08.672Z,17.10
2018-12-14T15:20:36.740Z,17.48
2018-12-14T15:26:05.076Z,19.37
2018-12-14T15:31:33.155Z,22.82
2018-12-14T15:37:02.134Z,17.65
2018-12-14T15:42:30.218Z,17.00
2018-12-14T15:47:58.375Z,17.32
2018-12-14T15:53:26.514Z,22.15
2018-12-14T15:58:54.594Z,17.92
2018-12-14T16:04:22.687Z,23.45
2018-12-14T16:09:50.777Z,16.60
2018-12-14T16:15:20.410Z,20.35
2018-12-14T16:20:48.666Z,20.08
2018-12-14T16:26:19.731Z,24.07
2018-12-14T16:31:47.802Z,21.20
2018-12-14T16:37:15.920Z,17.15
2018-12-14T16:42:44.956Z,18.27
2018-12-14T16:48:13.971Z,25.40
2018-12-14T16:53:47.538Z,25.62
2018-12-14T16:59:17.643Z,26.37
2018-12-14T17:04:45.729Z,19.82
2018-12-14T17:10:14.786Z,25.52
2018-12-14T17:15:42.876Z,21.50
2018-12-14T17:21:11.028Z,22.90
2018-12-14T17:26:39.173Z,25.05
2018-12-14T17:32:08.242Z,20.85
2018-12-14T17:37:36.346Z,18.50
2018-12-14T17:43:05.106Z,18.23
2018-12-14T17:48:34.138Z,19.98
2018-12-14T17:54:02.230Z,23.62
2018-12-14T17:59:30.294Z,25.80
2018-12-14T18:05:00.513Z,22.25
2018-12-14T18:10:28.634Z,23.80
2018-12-14T18:15:56.769Z,27.48
2018-12-14T18:21:25.950Z,21.75
2018-12-14T18:26:54.050Z,18.25
2018-12-14T18:32:22.172Z,24.45
2018-12-14T18:37:50.242Z,23.85
2018-12-14T18:43:18.313Z,23.52
2018-12-14T18:48:46.393Z,19.45
2018-12-14T18:54:14.667Z,20.30
2018-12-14T18:59:42.797Z,22.85
2018-12-14T19:05:15.239Z,20.08
2018-12-14T19:10:48.485Z,29.37
2018-12-14T19:16:16.651Z,26.00
2018-12-14T19:21:56.823Z,22.25
2018-12-14T19:27:25.931Z,21.00
2018-12-14T19:32:58.591Z,20.55
2018-12-14T19:38:27.639Z,20.02
2018-12-14T19:43:57.277Z,21.82
2018-12-14T19:49:25.411Z,19.55
2018-12-14T19:54:53.562Z,20.75
2018-12-14T20:00:21.648Z,35.70
2018-12-14T20:05:49.754Z,26.68
2018-12-14T20:11:17.853Z,22.20
2018-12-14T20:16:45.955Z,19.12
2018-12-14T20:22:14.171Z,25.32
2018-12-14T20:27:42.304Z,24.52
2018-12-14T20:33:10.584Z,21.02
2018-12-14T20:38:39.131Z,20.35
2018-12-14T20:44:07.339Z,24.15
2018-12-14T20:49:35.490Z,34.50
2018-12-14T20:55:04.618Z,23.87
2018-12-14T21:00:32.713Z,23.77
2018-12-14T21:06:00.864Z,25.37
2018-12-14T21:11:29.786Z,17.85
2018-12-14T21:16:58.044Z,18.77
2018-12-14T21:22:26.831Z,33.85
2018-12-14T21:27:55.111Z,25.85
2018-12-14T21:33:23.191Z,32.23
2018-12-14T21:38:51.312Z,20.88
2018-12-14T21:44:20.232Z,20.08
2018-12-14T21:49:48.309Z,25.50
2018-12-14T21:55:19.572Z,20.85
2018-12-14T22:00:47.685Z,22.27
2018-12-14T22:06:16.149Z,21.75
2018-12-14T22:11:44.323Z,22.55
2018-12-14T22:17:12.474Z,19.95
2018-12-14T22:22:40.628Z,22.90
2018-12-14T22:28:09.521Z,19.37
2018-12-14T22:33:37.768Z,18.48
2018-12-14T22:39:07.300Z,22.90
2018-12-14T22:44:36.701Z,23.07
2018-12-14T22:50:05.411Z,22.35
2018-12-14T22:55:33.509Z,24.43
2018-12-14T23:01:01.615Z,22.13
2018-12-14T23:06:29.749Z,21.60
2018-12-14T23:11:58.289Z,20.88
2018-12-14T23:17:26.433Z,18.07
2018-12-14T23:22:54.545Z,15.70
2018-12-14T23:28:22.650Z,18.80
2018-12-14T23:33:50.752Z,27.00
2018-12-14T23:39:18.861Z,16.95
2018-12-14T23:44:47.029Z,18.07
2018-12-14T23:50:15.224Z,17.77
2018-12-14T23:55:43.492Z,17.67
